Terminal Aerodrome Forecast
Issued by NWS

Home | Current Version | Previous Version | Text Only | Print | Product List | Glossary On
Versions: 1 2 3 4 5 6 7 8 9 10 11 12 13 14 15 16 17 18 19 20 21 22 23 24 25
889
FTUS41 KGYX 191125
TAFRKD
TAF
KRKD 191125Z 1912/2012 VRB03KT 6SM BR BKN003
     FM191500 09005KT P6SM OVC008
     FM191800 17006KT P6SM BKN025
     FM200000 VRB03KT 1SM BR BKN003
     FM200300 28003KT 1/2SM FG BKN001
      AMD LTD TO CLD VIS AND WIND=

USA.gov is the U.S. government's official web portal to all federal, state and local government web resources and services.